sensor_id;sensor_type;location;lat;lon;timestamp;P1;durP1;ratioP1;P2;durP2;ratioP2
11709;SDS011;5911;51.036;6.972;2023-05-02T00:01:48;25.67;;;21.85;;
11709;SDS011;5911;51.036;6.972;2023-05-02T00:04:17;26.30;;;23.70;;
11709;SDS011;5911;51.036;6.972;2023-05-02T00:06:45;25.23;;;22.70;;
11709;SDS011;5911;51.036;6.972;2023-05-02T00:09:14;24.87;;;22.37;;
11709;SDS011;5911;51.036;6.972;2023-05-02T00:11:42;24.70;;;22.10;;
11709;SDS011;5911;51.036;6.972;2023-05-02T00:14:10;25.77;;;22.85;;
11709;SDS011;5911;51.036;6.972;2023-05-02T00:16:38;25.40;;;22.90;;
11709;SDS011;5911;51.036;6.972;2023-05-02T00:19:05;25.53;;;22.80;;
11709;SDS011;5911;51.036;6.972;2023-05-02T00:21:33;26.60;;;23.83;;
11709;SDS011;5911;51.036;6.972;2023-05-02T00:24:01;26.17;;;23.37;;
11709;SDS011;5911;51.036;6.972;2023-05-02T00:26:30;27.33;;;24.47;;
11709;SDS011;5911;51.036;6.972;2023-05-02T00:28:58;26.07;;;23.27;;
11709;SDS011;5911;51.036;6.972;2023-05-02T00:31:26;30.50;;;27.30;;
11709;SDS011;5911;51.036;6.972;2023-05-02T00:33:54;29.60;;;25.97;;
11709;SDS011;5911;51.036;6.972;2023-05-02T00:36:22;28.80;;;25.77;;
11709;SDS011;5911;51.036;6.972;2023-05-02T00:38:50;30.23;;;27.03;;
11709;SDS011;5911;51.036;6.972;2023-05-02T00:41:18;29.27;;;25.90;;
11709;SDS011;5911;51.036;6.972;2023-05-02T00:43:47;28.07;;;25.13;;
11709;SDS011;5911;51.036;6.972;2023-05-02T00:46:15;32.27;;;28.73;;
11709;SDS011;5911;51.036;6.972;2023-05-02T00:48:43;31.53;;;28.07;;
11709;SDS011;5911;51.036;6.972;2023-05-02T00:51:11;33.83;;;28.40;;
11709;SDS011;5911;51.036;6.972;2023-05-02T00:53:39;35.87;;;29.73;;
11709;SDS011;5911;51.036;6.972;2023-05-02T00:56:07;36.70;;;30.93;;
11709;SDS011;5911;51.036;6.972;2023-05-02T00:58:35;30.23;;;26.77;;
11709;SDS011;5911;51.036;6.972;2023-05-02T01:01:13;31.20;;;27.80;;
11709;SDS011;5911;51.036;6.972;2023-05-02T01:03:52;35.00;;;28.97;;
11709;SDS011;5911;51.036;6.972;2023-05-02T01:06:30;34.20;;;27.60;;
11709;SDS011;5911;51.036;6.972;2023-05-02T01:09:11;37.03;;;28.80;;
11709;SDS011;5911;51.036;6.972;2023-05-02T01:11:51;32.93;;;27.67;;
11709;SDS011;5911;51.036;6.972;2023-05-02T01:14:24;33.67;;;28.10;;
11709;SDS011;5911;51.036;6.972;2023-05-02T01:16:58;35.23;;;29.60;;
11709;SDS011;5911;51.036;6.972;2023-05-02T01:19:31;32.63;;;26.73;;
11709;SDS011;5911;51.036;6.972;2023-05-02T01:22:05;36.53;;;29.30;;
11709;SDS011;5911;51.036;6.972;2023-05-02T01:24:38;38.80;;;28.77;;
11709;SDS011;5911;51.036;6.972;2023-05-02T01:27:17;37.33;;;29.50;;
11709;SDS011;5911;51.036;6.972;2023-05-02T01:29:55;36.67;;;29.30;;
11709;SDS011;5911;51.036;6.972;2023-05-02T01:32:26;33.93;;;30.17;;
11709;SDS011;5911;51.036;6.972;2023-05-02T01:34:56;35.60;;;29.10;;
11709;SDS011;5911;51.036;6.972;2023-05-02T01:37:25;35.90;;;30.77;;
11709;SDS011;5911;51.036;6.972;2023-05-02T01:39:55;37.30;;;29.70;;
11709;SDS011;5911;51.036;6.972;2023-05-02T01:42:25;39.10;;;31.63;;
11709;SDS011;5911;51.036;6.972;2023-05-02T01:44:56;37.10;;;30.10;;
11709;SDS011;5911;51.036;6.972;2023-05-02T01:47:26;39.57;;;31.77;;
11709;SDS011;5911;51.036;6.972;2023-05-02T01:49:57;38.43;;;30.70;;
11709;SDS011;5911;51.036;6.972;2023-05-02T01:52:26;44.70;;;32.97;;
11709;SDS011;5911;51.036;6.972;2023-05-02T01:54:55;38.93;;;31.50;;
11709;SDS011;5911;51.036;6.972;2023-05-02T01:57:25;42.67;;;32.47;;
11709;SDS011;5911;51.036;6.972;2023-05-02T01:59:54;42.30;;;33.03;;
11709;SDS011;5911;51.036;6.972;2023-05-02T02:02:26;39.87;;;32.20;;
11709;SDS011;5911;51.036;6.972;2023-05-02T02:04:56;41.27;;;30.87;;
11709;SDS011;5911;51.036;6.972;2023-05-02T02:07:24;40.10;;;30.87;;
11709;SDS011;5911;51.036;6.972;2023-05-02T02:09:52;42.57;;;31.03;;
11709;SDS011;5911;51.036;6.972;2023-05-02T02:12:21;42.97;;;32.07;;
11709;SDS011;5911;51.036;6.972;2023-05-02T02:14:55;40.30;;;31.00;;
11709;SDS011;5911;51.036;6.972;2023-05-02T02:17:29;43.00;;;32.90;;
11709;SDS011;5911;51.036;6.972;2023-05-02T02:20:04;43.67;;;31.83;;
11709;SDS011;5911;51.036;6.972;2023-05-02T02:22:36;46.17;;;33.83;;
11709;SDS011;5911;51.036;6.972;2023-05-02T02:25:07;40.80;;;32.43;;
11709;SDS011;5911;51.036;6.972;2023-05-02T02:27:38;39.63;;;30.57;;
11709;SDS011;5911;51.036;6.972;2023-05-02T02:30:08;42.30;;;31.57;;
11709;SDS011;5911;51.036;6.972;2023-05-02T02:32:37;43.17;;;31.80;;
11709;SDS011;5911;51.036;6.972;2023-05-02T02:35:05;38.07;;;30.40;;
11709;SDS011;5911;51.036;6.972;2023-05-02T02:37:34;40.97;;;31.27;;
11709;SDS011;5911;51.036;6.972;2023-05-02T02:40:07;40.70;;;31.17;;
11709;SDS011;5911;51.036;6.972;2023-05-02T02:42:44;43.10;;;31.73;;
11709;SDS011;5911;51.036;6.972;2023-05-02T02:45:23;42.13;;;29.97;;
11709;SDS011;5911;51.036;6.972;2023-05-02T02:47:59;39.07;;;29.30;;
11709;SDS011;5911;51.036;6.972;2023-05-02T02:50:34;39.53;;;30.47;;
11709;SDS011;5911;51.036;6.972;2023-05-02T02:53:04;40.90;;;29.83;;
11709;SDS011;5911;51.036;6.972;2023-05-02T02:55:37;41.23;;;31.40;;
11709;SDS011;5911;51.036;6.972;2023-05-02T02:58:14;39.87;;;29.93;;
11709;SDS011;5911;51.036;6.972;2023-05-02T03:00:49;38.93;;;29.23;;
11709;SDS011;5911;51.036;6.972;2023-05-02T03:03:18;42.27;;;30.70;;
11709;SDS011;5911;51.036;6.972;2023-05-02T03:05:50;37.77;;;29.10;;
11709;SDS011;5911;51.036;6.972;2023-05-02T03:08:18;40.00;;;29.00;;
11709;SDS011;5911;51.036;6.972;2023-05-02T03:10:46;41.33;;;28.93;;
11709;SDS011;5911;51.036;6.972;2023-05-02T03:13:14;44.07;;;29.23;;
11709;SDS011;5911;51.036;6.972;2023-05-02T03:18:53;41.10;;;29.80;;
11709;SDS011;5911;51.036;6.972;2023-05-02T03:21:21;40.33;;;30.00;;
11709;SDS011;5911;51.036;6.972;2023-05-02T03:23:50;40.20;;;30.23;;
11709;SDS011;5911;51.036;6.972;2023-05-02T03:26:18;38.37;;;29.83;;
11709;SDS011;5911;51.036;6.972;2023-05-02T03:28:46;39.93;;;28.53;;
11709;SDS011;5911;51.036;6.972;2023-05-02T03:31:21;41.20;;;29.67;;
11709;SDS011;5911;51.036;6.972;2023-05-02T03:33:52;40.47;;;28.30;;
11709;SDS011;5911;51.036;6.972;2023-05-02T03:36:21;37.33;;;27.67;;
11709;SDS011;5911;51.036;6.972;2023-05-02T03:38:52;41.53;;;30.93;;
11709;SDS011;5911;51.036;6.972;2023-05-02T03:41:20;40.33;;;30.50;;
11709;SDS011;5911;51.036;6.972;2023-05-02T03:43:53;41.50;;;30.73;;
11709;SDS011;5911;51.036;6.972;2023-05-02T03:46:24;40.07;;;29.30;;
11709;SDS011;5911;51.036;6.972;2023-05-02T03:48:53;41.80;;;31.03;;
11709;SDS011;5911;51.036;6.972;2023-05-02T03:51:21;39.67;;;29.33;;
11709;SDS011;5911;51.036;6.972;2023-05-02T03:53:52;38.23;;;28.73;;
11709;SDS011;5911;51.036;6.972;2023-05-02T03:56:20;41.87;;;27.93;;
11709;SDS011;5911;51.036;6.972;2023-05-02T03:58:58;37.77;;;27.43;;
11709;SDS011;5911;51.036;6.972;2023-05-02T04:01:28;34.53;;;26.63;;
11709;SDS011;5911;51.036;6.972;2023-05-02T04:03:57;37.80;;;26.73;;
11709;SDS011;5911;51.036;6.972;2023-05-02T04:06:28;38.40;;;26.47;;
11709;SDS011;5911;51.036;6.972;2023-05-02T04:09:01;41.40;;;26.03;;
11709;SDS011;5911;51.036;6.972;2023-05-02T04:11:36;36.50;;;26.27;;
11709;SDS011;5911;51.036;6.972;2023-05-02T04:14:06;38.30;;;26.03;;
11709;SDS011;5911;51.036;6.972;2023-05-02T04:16:35;40.00;;;26.50;;
11709;SDS011;5911;51.036;6.972;2023-05-02T04:19:03;36.03;;;25.33;;
11709;SDS011;5911;51.036;6.972;2023-05-02T04:21:31;36.93;;;26.70;;
11709;SDS011;5911;51.036;6.972;2023-05-02T04:24:05;37.63;;;26.63;;
11709;SDS011;5911;51.036;6.972;2023-05-02T04:26:32;39.57;;;27.30;;
11709;SDS011;5911;51.036;6.972;2023-05-02T04:29:05;36.77;;;27.13;;
11709;SDS011;5911;51.036;6.972;2023-05-02T04:31:33;39.27;;;26.90;;
11709;SDS011;5911;51.036;6.972;2023-05-02T04:34:03;37.13;;;27.10;;
11709;SDS011;5911;51.036;6.972;2023-05-02T04:36:36;38.23;;;27.47;;
11709;SDS011;5911;51.036;6.972;2023-05-02T04:39:06;39.07;;;27.33;;
11709;SDS011;5911;51.036;6.972;2023-05-02T04:41:38;39.00;;;27.03;;
11709;SDS011;5911;51.036;6.972;2023-05-02T04:44:07;39.20;;;26.83;;
11709;SDS011;5911;51.036;6.972;2023-05-02T04:46:36;35.73;;;26.73;;
11709;SDS011;5911;51.036;6.972;2023-05-02T04:49:05;33.13;;;23.63;;
11709;SDS011;5911;51.036;6.972;2023-05-02T04:51:33;34.07;;;25.73;;
11709;SDS011;5911;51.036;6.972;2023-05-02T04:54:01;33.97;;;25.23;;
11709;SDS011;5911;51.036;6.972;2023-05-02T04:56:29;32.07;;;24.40;;
11709;SDS011;5911;51.036;6.972;2023-05-02T04:58:57;34.77;;;23.57;;
11709;SDS011;5911;51.036;6.972;2023-05-02T05:01:26;36.63;;;25.00;;
11709;SDS011;5911;51.036;6.972;2023-05-02T05:03:55;34.77;;;23.70;;
11709;SDS011;5911;51.036;6.972;2023-05-02T05:06:25;36.37;;;23.03;;
11709;SDS011;5911;51.036;6.972;2023-05-02T05:08:54;32.80;;;23.20;;
11709;SDS011;5911;51.036;6.972;2023-05-02T05:11:21;33.27;;;23.77;;
11709;SDS011;5911;51.036;6.972;2023-05-02T05:13:49;33.97;;;23.77;;
11709;SDS011;5911;51.036;6.972;2023-05-02T05:16:17;34.97;;;23.57;;
11709;SDS011;5911;51.036;6.972;2023-05-02T05:18:45;33.33;;;22.53;;
11709;SDS011;5911;51.036;6.972;2023-05-02T05:21:14;31.13;;;21.73;;
11709;SDS011;5911;51.036;6.972;2023-05-02T05:23:44;34.10;;;22.93;;
11709;SDS011;5911;51.036;6.972;2023-05-02T05:26:18;35.30;;;22.77;;
11709;SDS011;5911;51.036;6.972;2023-05-02T05:28:47;31.77;;;23.40;;
11709;SDS011;5911;51.036;6.972;2023-05-02T05:31:18;33.50;;;23.43;;
11709;SDS011;5911;51.036;6.972;2023-05-02T05:33:50;31.73;;;22.07;;
11709;SDS011;5911;51.036;6.972;2023-05-02T05:36:19;31.50;;;19.73;;
11709;SDS011;5911;51.036;6.972;2023-05-02T05:38:50;30.37;;;19.37;;
11709;SDS011;5911;51.036;6.972;2023-05-02T05:41:19;28.17;;;19.47;;
11709;SDS011;5911;51.036;6.972;2023-05-02T05:43:51;26.77;;;18.53;;
11709;SDS011;5911;51.036;6.972;2023-05-02T05:46:19;28.67;;;19.57;;
11709;SDS011;5911;51.036;6.972;2023-05-02T05:48:47;30.57;;;20.67;;
11709;SDS011;5911;51.036;6.972;2023-05-02T05:51:14;30.00;;;19.47;;
11709;SDS011;5911;51.036;6.972;2023-05-02T05:53:42;28.80;;;21.00;;
11709;SDS011;5911;51.036;6.972;2023-05-02T05:56:13;29.60;;;19.73;;
11709;SDS011;5911;51.036;6.972;2023-05-02T05:58:47;31.37;;;20.70;;
11709;SDS011;5911;51.036;6.972;2023-05-02T06:01:15;28.50;;;18.90;;
11709;SDS011;5911;51.036;6.972;2023-05-02T06:03:43;29.60;;;20.67;;
11709;SDS011;5911;51.036;6.972;2023-05-02T06:06:13;30.23;;;20.17;;
11709;SDS011;5911;51.036;6.972;2023-05-02T06:08:40;32.80;;;22.23;;
11709;SDS011;5911;51.036;6.972;2023-05-02T06:11:08;31.47;;;20.93;;
11709;SDS011;5911;51.036;6.972;2023-05-02T06:13:38;30.47;;;21.07;;
11709;SDS011;5911;51.036;6.972;2023-05-02T06:16:06;33.50;;;21.43;;
11709;SDS011;5911;51.036;6.972;2023-05-02T06:18:34;28.30;;;19.80;;
11709;SDS011;5911;51.036;6.972;2023-05-02T06:21:03;31.43;;;21.03;;
11709;SDS011;5911;51.036;6.972;2023-05-02T06:23:31;28.50;;;20.47;;
11709;SDS011;5911;51.036;6.972;2023-05-02T06:26:00;30.63;;;19.93;;
11709;SDS011;5911;51.036;6.972;2023-05-02T06:28:28;28.97;;;20.33;;
11709;SDS011;5911;51.036;6.972;2023-05-02T06:30:58;30.07;;;19.47;;
11709;SDS011;5911;51.036;6.972;2023-05-02T06:33:27;29.13;;;19.53;;
11709;SDS011;5911;51.036;6.972;2023-05-02T06:35:55;27.20;;;20.87;;
11709;SDS011;5911;51.036;6.972;2023-05-02T06:38:26;25.43;;;19.50;;
11709;SDS011;5911;51.036;6.972;2023-05-02T06:40:54;24.93;;;19.00;;
11709;SDS011;5911;51.036;6.972;2023-05-02T06:43:22;26.03;;;18.90;;
11709;SDS011;5911;51.036;6.972;2023-05-02T06:45:51;28.00;;;19.97;;
11709;SDS011;5911;51.036;6.972;2023-05-02T06:48:22;29.37;;;20.07;;
11709;SDS011;5911;51.036;6.972;2023-05-02T06:50:50;25.40;;;18.53;;
11709;SDS011;5911;51.036;6.972;2023-05-02T06:53:18;29.10;;;19.60;;
11709;SDS011;5911;51.036;6.972;2023-05-02T06:55:46;28.77;;;20.80;;
11709;SDS011;5911;51.036;6.972;2023-05-02T06:58:15;27.40;;;20.57;;
11709;SDS011;5911;51.036;6.972;2023-05-02T07:00:42;26.00;;;20.20;;
11709;SDS011;5911;51.036;6.972;2023-05-02T07:03:10;28.87;;;20.73;;
11709;SDS011;5911;51.036;6.972;2023-05-02T07:05:40;26.07;;;19.60;;
11709;SDS011;5911;51.036;6.972;2023-05-02T07:08:08;26.47;;;20.50;;
11709;SDS011;5911;51.036;6.972;2023-05-02T07:10:36;23.63;;;18.73;;
11709;SDS011;5911;51.036;6.972;2023-05-02T07:13:04;24.80;;;19.77;;
11709;SDS011;5911;51.036;6.972;2023-05-02T07:15:33;23.50;;;18.40;;
11709;SDS011;5911;51.036;6.972;2023-05-02T07:18:01;23.00;;;17.73;;
11709;SDS011;5911;51.036;6.972;2023-05-02T07:20:29;20.40;;;16.47;;
11709;SDS011;5911;51.036;6.972;2023-05-02T07:22:58;21.17;;;16.07;;
11709;SDS011;5911;51.036;6.972;2023-05-02T07:25:26;17.77;;;13.87;;
11709;SDS011;5911;51.036;6.972;2023-05-02T07:27:54;16.27;;;12.60;;
11709;SDS011;5911;51.036;6.972;2023-05-02T07:30:22;17.10;;;13.53;;
11709;SDS011;5911;51.036;6.972;2023-05-02T07:32:50;17.73;;;14.23;;
11709;SDS011;5911;51.036;6.972;2023-05-02T07:35:17;17.30;;;13.10;;
11709;SDS011;5911;51.036;6.972;2023-05-02T07:37:45;15.53;;;11.47;;
11709;SDS011;5911;51.036;6.972;2023-05-02T07:40:15;13.00;;;10.40;;
11709;SDS011;5911;51.036;6.972;2023-05-02T07:42:43;15.77;;;10.57;;
11709;SDS011;5911;51.036;6.972;2023-05-02T07:45:12;15.37;;;11.47;;
11709;SDS011;5911;51.036;6.972;2023-05-02T07:47:39;16.00;;;11.37;;
11709;SDS011;5911;51.036;6.972;2023-05-02T07:50:07;13.70;;;10.03;;
11709;SDS011;5911;51.036;6.972;2023-05-02T07:52:36;13.33;;;10.80;;
11709;SDS011;5911;51.036;6.972;2023-05-02T07:55:04;13.40;;;10.47;;
11709;SDS011;5911;51.036;6.972;2023-05-02T07:57:34;16.10;;;10.60;;
11709;SDS011;5911;51.036;6.972;2023-05-02T08:00:02;13.77;;;9.87;;
11709;SDS011;5911;51.036;6.972;2023-05-02T08:02:38;11.80;;;10.17;;
11709;SDS011;5911;51.036;6.972;2023-05-02T08:05:06;18.40;;;10.67;;
11709;SDS011;5911;51.036;6.972;2023-05-02T08:07:34;15.47;;;11.67;;
11709;SDS011;5911;51.036;6.972;2023-05-02T08:10:03;14.93;;;12.00;;
11709;SDS011;5911;51.036;6.972;2023-05-02T08:12:31;13.50;;;11.33;;
11709;SDS011;5911;51.036;6.972;2023-05-02T08:15:04;11.10;;;8.90;;
11709;SDS011;5911;51.036;6.972;2023-05-02T08:17:33;13.00;;;7.63;;
11709;SDS011;5911;51.036;6.972;2023-05-02T08:20:00;9.40;;;7.13;;
11709;SDS011;5911;51.036;6.972;2023-05-02T08:22:28;9.53;;;7.27;;
11709;SDS011;5911;51.036;6.972;2023-05-02T08:24:57;10.60;;;8.27;;
11709;SDS011;5911;51.036;6.972;2023-05-02T08:27:24;15.40;;;10.30;;
11709;SDS011;5911;51.036;6.972;2023-05-02T08:29:52;13.70;;;10.07;;
11709;SDS011;5911;51.036;6.972;2023-05-02T08:32:22;14.53;;;11.77;;
11709;SDS011;5911;51.036;6.972;2023-05-02T08:34:53;13.80;;;12.00;;
11709;SDS011;5911;51.036;6.972;2023-05-02T08:37:21;16.03;;;13.70;;
11709;SDS011;5911;51.036;6.972;2023-05-02T08:39:49;17.20;;;13.48;;
11709;SDS011;5911;51.036;6.972;2023-05-02T08:42:17;17.50;;;13.80;;
11709;SDS011;5911;51.036;6.972;2023-05-02T08:44:45;19.20;;;13.70;;
11709;SDS011;5911;51.036;6.972;2023-05-02T08:47:15;15.40;;;12.43;;
11709;SDS011;5911;51.036;6.972;2023-05-02T08:49:46;16.80;;;12.27;;
11709;SDS011;5911;51.036;6.972;2023-05-02T08:52:16;12.67;;;9.93;;
11709;SDS011;5911;51.036;6.972;2023-05-02T08:54:46;11.03;;;5.90;;
11709;SDS011;5911;51.036;6.972;2023-05-02T08:57:16;6.50;;;4.73;;
11709;SDS011;5911;51.036;6.972;2023-05-02T08:59:44;3.97;;;3.40;;
11709;SDS011;5911;51.036;6.972;2023-05-02T09:02:16;4.17;;;3.40;;
11709;SDS011;5911;51.036;6.972;2023-05-02T09:04:52;5.70;;;3.50;;
11709;SDS011;5911;51.036;6.972;2023-05-02T09:07:21;6.33;;;3.30;;
11709;SDS011;5911;51.036;6.972;2023-05-02T09:09:49;5.53;;;3.33;;
11709;SDS011;5911;51.036;6.972;2023-05-02T09:12:16;7.13;;;3.70;;
11709;SDS011;5911;51.036;6.972;2023-05-02T09:17:41;13.70;;;6.10;;
11709;SDS011;5911;51.036;6.972;2023-05-02T09:20:11;6.27;;;5.47;;
11709;SDS011;5911;51.036;6.972;2023-05-02T09:22:46;7.47;;;5.27;;
11709;SDS011;5911;51.036;6.972;2023-05-02T09:25:16;9.60;;;5.10;;
11709;SDS011;5911;51.036;6.972;2023-05-02T09:27:47;7.30;;;5.03;;
11709;SDS011;5911;51.036;6.972;2023-05-02T09:30:17;7.23;;;4.60;;
11709;SDS011;5911;51.036;6.972;2023-05-02T09:32:47;6.50;;;4.57;;
11709;SDS011;5911;51.036;6.972;2023-05-02T09:35:18;7.77;;;5.33;;
11709;SDS011;5911;51.036;6.972;2023-05-02T09:37:50;10.67;;;6.30;;
11709;SDS011;5911;51.036;6.972;2023-05-02T09:40:19;8.43;;;6.53;;
11709;SDS011;5911;51.036;6.972;2023-05-02T09:42:46;7.90;;;6.83;;
11709;SDS011;5911;51.036;6.972;2023-05-02T09:45:21;7.97;;;6.67;;
11709;SDS011;5911;51.036;6.972;2023-05-02T09:47:50;8.43;;;6.97;;
11709;SDS011;5911;51.036;6.972;2023-05-02T09:50:32;12.20;;;8.00;;
11709;SDS011;5911;51.036;6.972;2023-05-02T09:53:02;8.57;;;7.60;;
11709;SDS011;5911;51.036;6.972;2023-05-02T09:55:31;8.70;;;7.47;;
11709;SDS011;5911;51.036;6.972;2023-05-02T09:57:59;8.57;;;7.60;;
11709;SDS011;5911;51.036;6.972;2023-05-02T10:00:37;8.97;;;8.07;;
11709;SDS011;5911;51.036;6.972;2023-05-02T10:03:08;11.33;;;9.70;;
11709;SDS011;5911;51.036;6.972;2023-05-02T10:05:38;10.93;;;9.40;;
11709;SDS011;5911;51.036;6.972;2023-05-02T10:08:07;14.03;;;9.97;;
11709;SDS011;5911;51.036;6.972;2023-05-02T10:10:36;11.17;;;9.27;;
11709;SDS011;5911;51.036;6.972;2023-05-02T10:13:06;9.87;;;8.60;;
11709;SDS011;5911;51.036;6.972;2023-05-02T10:15:36;11.87;;;8.10;;
11709;SDS011;5911;51.036;6.972;2023-05-02T10:18:11;10.13;;;7.60;;
11709;SDS011;5911;51.036;6.972;2023-05-02T10:20:45;11.30;;;8.07;;
11709;SDS011;5911;51.036;6.972;2023-05-02T10:23:19;8.97;;;6.87;;
11709;SDS011;5911;51.036;6.972;2023-05-02T10:25:48;9.73;;;6.80;;
11709;SDS011;5911;51.036;6.972;2023-05-02T10:28:16;6.53;;;5.60;;
11709;SDS011;5911;51.036;6.972;2023-05-02T10:30:44;7.83;;;5.50;;
11709;SDS011;5911;51.036;6.972;2023-05-02T10:33:12;7.03;;;6.33;;
11709;SDS011;5911;51.036;6.972;2023-05-02T10:35:43;9.37;;;6.70;;
11709;SDS011;5911;51.036;6.972;2023-05-02T10:38:13;24.87;;;13.70;;
11709;SDS011;5911;51.036;6.972;2023-05-02T10:40:48;22.93;;;12.53;;
11709;SDS011;5911;51.036;6.972;2023-05-02T10:43:22;18.67;;;9.57;;
11709;SDS011;5911;51.036;6.972;2023-05-02T10:45:51;16.30;;;7.00;;
11709;SDS011;5911;51.036;6.972;2023-05-02T10:48:21;8.93;;;5.10;;
11709;SDS011;5911;51.036;6.972;2023-05-02T10:50:54;8.07;;;4.73;;
11709;SDS011;5911;51.036;6.972;2023-05-02T10:53:29;8.23;;;4.03;;
11709;SDS011;5911;51.036;6.972;2023-05-02T10:56:08;7.87;;;3.93;;
11709;SDS011;5911;51.036;6.972;2023-05-02T10:58:38;5.97;;;3.70;;
11709;SDS011;5911;51.036;6.972;2023-05-02T11:04:02;5.93;;;4.23;;
11709;SDS011;5911;51.036;6.972;2023-05-02T11:06:33;5.10;;;3.47;;
11709;SDS011;5911;51.036;6.972;2023-05-02T11:11:59;5.30;;;3.67;;
11709;SDS011;5911;51.036;6.972;2023-05-02T11:14:42;4.63;;;3.20;;
11709;SDS011;5911;51.036;6.972;2023-05-02T11:17:18;6.75;;;3.20;;
11709;SDS011;5911;51.036;6.972;2023-05-02T11:22:55;5.70;;;3.30;;
11709;SDS011;5911;51.036;6.972;2023-05-02T11:25:47;5.67;;;3.67;;
11709;SDS011;5911;51.036;6.972;2023-05-02T11:31:07;4.83;;;3.47;;
11709;SDS011;5911;51.036;6.972;2023-05-02T11:33:36;4.90;;;4.17;;
11709;SDS011;5911;51.036;6.972;2023-05-02T11:36:04;5.17;;;3.83;;
11709;SDS011;5911;51.036;6.972;2023-05-02T11:38:36;9.30;;;5.53;;
11709;SDS011;5911;51.036;6.972;2023-05-02T11:41:05;12.30;;;5.80;;
11709;SDS011;5911;51.036;6.972;2023-05-02T11:43:32;5.60;;;4.83;;
11709;SDS011;5911;51.036;6.972;2023-05-02T11:46:01;7.33;;;4.70;;
11709;SDS011;5911;51.036;6.972;2023-05-02T11:48:30;6.53;;;4.68;;
11709;SDS011;5911;51.036;6.972;2023-05-02T11:50:59;5.53;;;4.00;;
11709;SDS011;5911;51.036;6.972;2023-05-02T11:53:30;7.63;;;4.20;;
11709;SDS011;5911;51.036;6.972;2023-05-02T11:56:01;9.05;;;4.05;;
11709;SDS011;5911;51.036;6.972;2023-05-02T11:58:31;8.83;;;4.47;;
11709;SDS011;5911;51.036;6.972;2023-05-02T12:01:09;6.90;;;3.73;;
11709;SDS011;5911;51.036;6.972;2023-05-02T12:03:39;4.73;;;4.07;;
11709;SDS011;5911;51.036;6.972;2023-05-02T12:06:07;4.45;;;3.90;;
11709;SDS011;5911;51.036;6.972;2023-05-02T12:08:38;7.53;;;4.27;;
11709;SDS011;5911;51.036;6.972;2023-05-02T12:11:07;7.17;;;4.00;;
11709;SDS011;5911;51.036;6.972;2023-05-02T12:13:36;10.18;;;4.38;;
11709;SDS011;5911;51.036;6.972;2023-05-02T12:16:11;5.73;;;4.60;;
11709;SDS011;5911;51.036;6.972;2023-05-02T12:18:39;5.68;;;4.30;;
11709;SDS011;5911;51.036;6.972;2023-05-02T12:21:07;7.23;;;4.53;;
11709;SDS011;5911;51.036;6.972;2023-05-02T12:23:35;7.77;;;4.23;;
11709;SDS011;5911;51.036;6.972;2023-05-02T12:26:16;7.73;;;4.23;;
11709;SDS011;5911;51.036;6.972;2023-05-02T12:28:47;6.23;;;4.60;;
11709;SDS011;5911;51.036;6.972;2023-05-02T12:31:17;9.87;;;5.43;;
11709;SDS011;5911;51.036;6.972;2023-05-02T12:33:45;5.75;;;4.50;;
11709;SDS011;5911;51.036;6.972;2023-05-02T12:36:15;7.15;;;4.82;;
11709;SDS011;5911;51.036;6.972;2023-05-02T12:38:47;9.27;;;4.87;;
11709;SDS011;5911;51.036;6.972;2023-05-02T12:41:29;7.85;;;5.13;;
11709;SDS011;5911;51.036;6.972;2023-05-02T12:43:57;11.43;;;5.20;;
11709;SDS011;5911;51.036;6.972;2023-05-02T12:46:26;9.70;;;5.55;;
11709;SDS011;5911;51.036;6.972;2023-05-02T12:49:00;7.55;;;5.10;;
11709;SDS011;5911;51.036;6.972;2023-05-02T12:51:29;7.73;;;5.17;;
11709;SDS011;5911;51.036;6.972;2023-05-02T12:53:58;9.38;;;5.60;;
11709;SDS011;5911;51.036;6.972;2023-05-02T12:56:26;10.20;;;5.07;;
11709;SDS011;5911;51.036;6.972;2023-05-02T12:58:59;7.25;;;5.32;;
11709;SDS011;5911;51.036;6.972;2023-05-02T13:01:31;10.25;;;5.85;;
11709;SDS011;5911;51.036;6.972;2023-05-02T13:03:59;8.35;;;5.68;;
11709;SDS011;5911;51.036;6.972;2023-05-02T13:06:27;10.27;;;5.43;;
11709;SDS011;5911;51.036;6.972;2023-05-02T13:08:56;10.05;;;5.57;;
11709;SDS011;5911;51.036;6.972;2023-05-02T13:11:24;12.07;;;5.82;;
11709;SDS011;5911;51.036;6.972;2023-05-02T13:13:52;12.18;;;6.30;;
11709;SDS011;5911;51.036;6.972;2023-05-02T13:16:24;8.25;;;6.53;;
11709;SDS011;5911;51.036;6.972;2023-05-02T13:18:52;11.77;;;6.15;;
11709;SDS011;5911;51.036;6.972;2023-05-02T13:21:20;10.85;;;6.40;;
11709;SDS011;5911;51.036;6.972;2023-05-02T13:26:42;8.77;;;5.57;;
11709;SDS011;5911;51.036;6.972;2023-05-02T13:29:10;8.95;;;5.13;;
11709;SDS011;5911;51.036;6.972;2023-05-02T13:31:39;11.27;;;6.35;;
11709;SDS011;5911;51.036;6.972;2023-05-02T13:34:07;10.55;;;6.03;;
11709;SDS011;5911;51.036;6.972;2023-05-02T13:36:35;8.05;;;5.60;;
11709;SDS011;5911;51.036;6.972;2023-05-02T13:39:06;7.13;;;5.82;;
11709;SDS011;5911;51.036;6.972;2023-05-02T13:41:33;7.45;;;5.20;;
11709;SDS011;5911;51.036;6.972;2023-05-02T13:44:02;7.18;;;4.78;;
11709;SDS011;5911;51.036;6.972;2023-05-02T13:46:32;7.63;;;4.82;;
11709;SDS011;5911;51.036;6.972;2023-05-02T13:49:07;8.93;;;4.72;;
11709;SDS011;5911;51.036;6.972;2023-05-02T13:51:38;6.55;;;4.28;;
11709;SDS011;5911;51.036;6.972;2023-05-02T13:54:08;7.38;;;4.90;;
11709;SDS011;5911;51.036;6.972;2023-05-02T13:56:37;7.22;;;4.55;;
11709;SDS011;5911;51.036;6.972;2023-05-02T13:59:05;7.40;;;4.93;;
11709;SDS011;5911;51.036;6.972;2023-05-02T14:01:36;8.35;;;4.78;;
11709;SDS011;5911;51.036;6.972;2023-05-02T14:04:08;9.32;;;4.35;;
11709;SDS011;5911;51.036;6.972;2023-05-02T14:06:36;8.40;;;4.72;;
11709;SDS011;5911;51.036;6.972;2023-05-02T14:09:04;10.38;;;4.82;;
11709;SDS011;5911;51.036;6.972;2023-05-02T14:11:33;6.65;;;4.47;;
11709;SDS011;5911;51.036;6.972;2023-05-02T14:14:03;13.05;;;5.28;;
11709;SDS011;5911;51.036;6.972;2023-05-02T14:16:31;7.38;;;5.13;;
11709;SDS011;5911;51.036;6.972;2023-05-02T14:19:00;7.00;;;4.55;;
11709;SDS011;5911;51.036;6.972;2023-05-02T14:21:29;7.82;;;5.03;;
11709;SDS011;5911;51.036;6.972;2023-05-02T14:23:58;8.50;;;4.95;;
11709;SDS011;5911;51.036;6.972;2023-05-02T14:26:26;10.13;;;4.97;;
11709;SDS011;5911;51.036;6.972;2023-05-02T14:28:54;7.88;;;5.25;;
11709;SDS011;5911;51.036;6.972;2023-05-02T14:31:22;6.55;;;4.97;;
11709;SDS011;5911;51.036;6.972;2023-05-02T14:33:50;8.55;;;4.65;;
11709;SDS011;5911;51.036;6.972;2023-05-02T14:36:18;6.38;;;4.40;;
11709;SDS011;5911;51.036;6.972;2023-05-02T14:38:47;9.55;;;4.65;;
11709;SDS011;5911;51.036;6.972;2023-05-02T14:41:15;7.57;;;4.70;;
11709;SDS011;5911;51.036;6.972;2023-05-02T14:43:43;8.75;;;4.72;;
11709;SDS011;5911;51.036;6.972;2023-05-02T14:49:05;7.10;;;4.47;;
11709;SDS011;5911;51.036;6.972;2023-05-02T14:51:32;5.43;;;3.65;;
11709;SDS011;5911;51.036;6.972;2023-05-02T14:54:02;8.15;;;4.80;;
11709;SDS011;5911;51.036;6.972;2023-05-02T14:56:29;10.48;;;5.00;;
11709;SDS011;5911;51.036;6.972;2023-05-02T14:58:57;5.05;;;3.80;;
11709;SDS011;5911;51.036;6.972;2023-05-02T15:01:25;6.88;;;4.13;;
11709;SDS011;5911;51.036;6.972;2023-05-02T15:03:54;5.55;;;3.45;;
11709;SDS011;5911;51.036;6.972;2023-05-02T15:06:33;4.65;;;3.17;;
11709;SDS011;5911;51.036;6.972;2023-05-02T15:09:03;6.65;;;3.58;;
11709;SDS011;5911;51.036;6.972;2023-05-02T15:11:31;5.50;;;3.50;;
11709;SDS011;5911;51.036;6.972;2023-05-02T15:13:59;6.25;;;3.85;;
11709;SDS011;5911;51.036;6.972;2023-05-02T15:16:27;7.53;;;3.60;;
11709;SDS011;5911;51.036;6.972;2023-05-02T15:18:58;6.55;;;3.60;;
11709;SDS011;5911;51.036;6.972;2023-05-02T15:21:26;6.60;;;4.10;;
11709;SDS011;5911;51.036;6.972;2023-05-02T15:23:53;7.32;;;4.22;;
11709;SDS011;5911;51.036;6.972;2023-05-02T15:26:23;5.22;;;3.60;;